サイパン島 の空港の天気 - METARとTAF

サイパン国際空港 ( PGSN / SPN ) - 北マリアナ諸島 サイパン島
飛行場実況気象(Metar)
観測時間02/21 01:12 ChST (02/20 15:12 UTC)
風向・風速東北東 6m/s
視程10km以上
天気現象
全天の4割程度の雲 雲底高度 640m
全天の8割程度の雲 雲底高度 1220m
全天を覆う雲 雲底高度 3350m
気温26℃
湿度84%
気圧1014hPa
METARPGSN 201512Z 07012KT 10SM SCT021 BKN040 OVC110 26/23 A2995 RMK AO2 $
過去の天気等 Google飛行場航空写真 Wunderground天気予報

過去48時間のMETAR

飛行場予報(TAF)
発表時間: 2/20 21:26 ChST (2/20 11:26 UTC)
予報対象時間: 20日22時 ChST ~ 21日22時 ChST
風向・風速東 7m/s
視程10km以上
天気現象周辺でしゅう雨
全天の4割程度の雲 雲底高度 760m
全天の8割程度の雲 雲底高度 1,520m
21日8時 ChST から
風向・風速東北東 8m/s
視程10km以上
少しの雲 雲底高度 760m
全天の4割程度の雲 雲底高度 1,220m
TAF PGSN 201126Z 2012/2112 08014KT P6SM VCSH SCT025 BKN050
FM202200 07015KT P6SM FEW025 SCT040